Leibnitz, Austria
Current Conditions -  °F | °C
As of 5:20 AM on Sunday 26 Oct 2014 (Local Time) from LOWG Reporting Station
Broken Clouds Broken Clouds  
Wind Chill: 40°   Ceiling: 700
Heat Index: 43°   Visibility: 5mi
Dew Point: 41°   Wind: 5mph
Humidity: 93%   Direction: 80°E
Pressure: 30.33"   Gusts: NA
Location:  46.78°N, 15.56°E
Report Text: LOWG 260320Z 08004KT 8000 SCT006 BKN007 06/05 Q1027 TEMPO BKN005
Loading
Personal Weather Stations






























Interactive Weather Map
Tropical Storm Tracking
New forecast layout! Learn more

10-Day Weather Forecast

Advertisements
Track Severe Weather on mobile